createdAt,value
2023-02-23T00:02:19.798Z,6.10
2023-02-23T00:04:48.269Z,6.10
2023-02-23T00:07:20.166Z,5.70
2023-02-23T00:09:48.461Z,5.90
2023-02-23T00:12:17.376Z,5.90
2023-02-23T00:14:45.792Z,6.80
2023-02-23T00:17:14.947Z,5.50
2023-02-23T00:19:44.112Z,5.60
2023-02-23T00:22:12.951Z,5.70
2023-02-23T00:24:47.535Z,6.00
2023-02-23T00:27:21.434Z,7.50
2023-02-23T00:29:51.117Z,6.00
2023-02-23T00:32:22.729Z,6.50
2023-02-23T00:34:52.662Z,6.50
2023-02-23T00:37:23.139Z,7.10
2023-02-23T00:39:54.497Z,6.90
2023-02-23T00:42:23.802Z,6.80
2023-02-23T00:44:52.308Z,7.10
2023-02-23T00:47:20.898Z,7.50
2023-02-23T00:49:50.776Z,7.30
2023-02-23T00:52:21.125Z,7.40
2023-02-23T00:54:51.583Z,6.80
2023-02-23T00:57:19.849Z,6.80
2023-02-23T00:59:51.019Z,6.60
2023-02-23T01:02:19.036Z,6.20
2023-02-23T01:04:47.108Z,8.20
2023-02-23T01:07:15.577Z,7.00
2023-02-23T01:09:43.950Z,8.10
2023-02-23T01:12:13.355Z,7.10
2023-02-23T01:14:47.838Z,7.20
2023-02-23T01:17:15.953Z,7.20
2023-02-23T01:19:44.544Z,7.00
2023-02-23T01:22:12.790Z,8.00
2023-02-23T01:24:41.812Z,7.60
2023-02-23T01:27:09.938Z,7.40
2023-02-23T01:29:39.878Z,6.70
2023-02-23T01:32:08.838Z,7.10
2023-02-23T01:34:38.884Z,6.70
2023-02-23T01:37:06.932Z,7.00
2023-02-23T01:39:35.004Z,7.40
2023-02-23T01:42:25.733Z,7.30
2023-02-23T01:44:53.778Z,8.00
2023-02-23T01:47:22.535Z,7.00
2023-02-23T01:49:51.203Z,8.20
2023-02-23T01:52:19.370Z,6.60
2023-02-23T01:54:51.293Z,7.80
2023-02-23T01:57:21.279Z,7.10
2023-02-23T01:59:51.108Z,7.40
2023-02-23T02:02:21.517Z,7.20
2023-02-23T02:04:52.445Z,6.10
2023-02-23T02:07:24.042Z,7.20
2023-02-23T02:10:12.603Z,6.30
2023-02-23T02:12:45.588Z,7.10
2023-02-23T02:15:19.687Z,7.70
2023-02-23T02:18:23.741Z,6.50
2023-02-23T02:21:17.824Z,6.60
2023-02-23T02:24:08.451Z,7.20
2023-02-23T02:26:49.908Z,6.80
2023-02-23T02:29:31.480Z,7.00
2023-02-23T02:32:02.756Z,7.00
2023-02-23T02:35:09.104Z,6.50
2023-02-23T02:37:56.974Z,5.40
2023-02-23T02:40:53.526Z,6.60
2023-02-23T02:43:42.967Z,5.70
2023-02-23T02:46:41.599Z,6.20
2023-02-23T02:49:26.738Z,6.60
2023-02-23T02:54:47.934Z,5.70
2023-02-23T02:57:16.837Z,7.10
2023-02-23T03:00:04.585Z,6.90
2023-02-23T03:02:54.434Z,6.00
2023-02-23T03:05:48.156Z,6.80
2023-02-23T03:08:48.029Z,3.90
2023-02-23T03:11:35.294Z,6.70
2023-02-23T03:14:30.656Z,5.50
2023-02-23T03:17:27.446Z,6.30
2023-02-23T03:20:26.650Z,6.60
2023-02-23T03:23:19.546Z,6.50
2023-02-23T03:26:31.205Z,5.80
2023-02-23T03:29:29.019Z,6.40
2023-02-23T03:32:49.300Z,6.20
2023-02-23T03:35:47.622Z,6.40
2023-02-23T03:38:48.582Z,6.50
2023-02-23T03:41:35.157Z,6.20
2023-02-23T03:44:25.649Z,6.50
2023-02-23T03:47:12.846Z,6.40
2023-02-23T03:50:01.190Z,7.60
2023-02-23T03:52:52.071Z,6.90
2023-02-23T03:55:46.123Z,6.80
2023-02-23T03:58:37.584Z,6.20
2023-02-23T04:01:25.040Z,6.20
2023-02-23T04:04:12.253Z,6.90
2023-02-23T04:07:01.078Z,6.80
2023-02-23T04:09:48.292Z,8.10
2023-02-23T04:12:55.805Z,7.10
2023-02-23T04:15:33.430Z,7.20
2023-02-23T04:18:06.591Z,7.70
2023-02-23T04:20:35.509Z,6.60
2023-02-23T04:23:04.310Z,7.00
2023-02-23T04:25:33.050Z,8.10
2023-02-23T04:28:01.318Z,8.10
2023-02-23T04:30:30.500Z,6.90
2023-02-23T04:32:59.820Z,7.40
2023-02-23T04:35:30.117Z,7.10
2023-02-23T04:38:01.645Z,7.70
2023-02-23T04:40:30.095Z,7.50
2023-02-23T04:42:58.313Z,6.90
2023-02-23T04:45:26.806Z,7.50
2023-02-23T04:47:54.916Z,6.50
2023-02-23T04:50:25.403Z,7.00
2023-02-23T04:52:53.891Z,8.80
2023-02-23T04:55:23.113Z,7.80
2023-02-23T04:57:55.550Z,6.80
2023-02-23T05:00:25.622Z,7.40
2023-02-23T05:02:57.659Z,7.60
2023-02-23T05:05:27.645Z,7.40
2023-02-23T05:07:55.839Z,7.50
2023-02-23T05:10:24.905Z,8.10
2023-02-23T05:13:01.407Z,7.70
2023-02-23T05:15:35.070Z,7.10
2023-02-23T05:18:03.477Z,7.10
2023-02-23T05:20:34.254Z,7.10
2023-02-23T05:23:05.075Z,7.30
2023-02-23T05:25:33.870Z,7.60
2023-02-23T05:28:05.454Z,7.20
2023-02-23T05:30:34.736Z,7.30
2023-02-23T05:33:08.468Z,8.50
2023-02-23T05:35:54.290Z,7.30
2023-02-23T05:38:22.578Z,6.70
2023-02-23T05:41:14.800Z,7.10
2023-02-23T05:43:44.268Z,5.10
2023-02-23T05:46:17.489Z,8.20
2023-02-23T05:48:49.053Z,7.80
2023-02-23T05:51:18.756Z,7.90
2023-02-23T05:53:52.019Z,8.20
2023-02-23T05:56:24.069Z,6.80
2023-02-23T05:58:53.972Z,7.70
2023-02-23T06:01:24.667Z,7.70
2023-02-23T06:04:09.269Z,7.20
2023-02-23T06:06:39.618Z,8.40
2023-02-23T06:09:11.014Z,8.30
2023-02-23T06:11:41.131Z,7.30
2023-02-23T06:14:12.356Z,7.60
2023-02-23T06:16:48.597Z,7.60
2023-02-23T06:19:17.370Z,8.50
2023-02-23T06:21:47.785Z,8.30
2023-02-23T06:24:19.898Z,7.90
2023-02-23T06:26:51.888Z,8.30
2023-02-23T06:29:21.900Z,5.90
2023-02-23T06:31:52.450Z,8.60
2023-02-23T06:34:20.655Z,8.40
2023-02-23T06:36:51.200Z,8.00
2023-02-23T06:39:21.497Z,8.40
2023-02-23T06:41:52.486Z,10.50
2023-02-23T06:44:23.702Z,8.50
2023-02-23T06:46:52.123Z,7.40
2023-02-23T06:49:20.243Z,8.00
2023-02-23T06:51:51.237Z,8.60
2023-02-23T06:54:19.844Z,8.50
2023-02-23T06:56:49.097Z,8.30
2023-02-23T06:59:17.326Z,8.20
2023-02-23T07:01:47.888Z,7.80
2023-02-23T07:04:17.047Z,7.80
2023-02-23T07:06:45.674Z,8.50
2023-02-23T07:09:16.800Z,7.50
2023-02-23T07:11:45.629Z,7.60
2023-02-23T07:14:26.172Z,7.90
2023-02-23T07:16:55.130Z,8.40
2023-02-23T07:19:24.748Z,9.20
2023-02-23T07:21:53.737Z,7.60
2023-02-23T07:24:22.192Z,8.60
2023-02-23T07:26:50.783Z,7.80
2023-02-23T07:29:19.329Z,8.60
2023-02-23T07:31:50.134Z,7.80
2023-02-23T07:34:18.874Z,7.20
2023-02-23T07:36:47.429Z,7.60
2023-02-23T07:39:15.776Z,7.70
2023-02-23T07:41:44.069Z,7.70
2023-02-23T07:44:19.778Z,8.70
2023-02-23T07:46:52.912Z,10.00
2023-02-23T07:49:21.230Z,11.10
2023-02-23T07:51:49.855Z,7.60
2023-02-23T07:54:19.765Z,7.20
2023-02-23T07:56:48.031Z,7.60
2023-02-23T07:59:22.899Z,7.60
2023-02-23T08:01:52.673Z,7.00
2023-02-23T08:04:24.027Z,7.00
2023-02-23T08:06:52.298Z,6.20
2023-02-23T08:09:20.371Z,7.30
2023-02-23T08:11:49.722Z,8.20
2023-02-23T08:14:22.071Z,9.30
2023-02-23T08:16:51.645Z,7.30
2023-02-23T08:19:24.978Z,8.70
2023-02-23T08:21:55.466Z,6.50
2023-02-23T08:24:26.972Z,5.70
2023-02-23T08:26:58.720Z,6.70
2023-02-23T08:29:27.377Z,7.40
2023-02-23T08:31:58.614Z,6.50
2023-02-23T08:34:28.449Z,5.70
2023-02-23T08:36:56.960Z,5.60
2023-02-23T08:39:25.242Z,5.30
2023-02-23T08:41:58.216Z,6.10
2023-02-23T08:44:26.627Z,5.80
2023-02-23T08:46:55.918Z,7.70
2023-02-23T08:52:08.644Z,6.00
2023-02-23T08:54:37.360Z,5.70
2023-02-23T08:57:06.169Z,5.70
2023-02-23T08:59:39.326Z,6.10
2023-02-23T09:02:10.489Z,6.10
2023-02-23T09:04:41.912Z,6.50
2023-02-23T09:07:15.445Z,5.50
2023-02-23T09:09:43.702Z,5.10
2023-02-23T09:12:15.061Z,6.70
2023-02-23T09:14:48.472Z,6.60
2023-02-23T09:17:18.116Z,6.20
2023-02-23T09:19:48.059Z,6.60
2023-02-23T09:22:18.493Z,7.50
2023-02-23T09:24:46.643Z,7.20
2023-02-23T09:27:14.972Z,7.50
2023-02-23T09:29:44.762Z,6.60
2023-02-23T09:32:24.188Z,9.10
2023-02-23T09:34:57.248Z,7.70
2023-02-23T09:37:28.524Z,8.60
2023-02-23T09:39:59.338Z,8.30
2023-02-23T09:42:50.953Z,9.70
2023-02-23T09:45:26.640Z,9.60
2023-02-23T09:48:16.988Z,9.10
2023-02-23T09:50:53.340Z,9.90
2023-02-23T09:53:35.735Z,8.50
2023-02-23T09:56:23.361Z,8.20
2023-02-23T09:58:51.825Z,8.20
2023-02-23T10:01:46.421Z,8.30
2023-02-23T10:04:36.824Z,9.40
2023-02-23T10:07:21.556Z,9.80
2023-02-23T10:10:34.122Z,9.10
2023-02-23T10:13:23.837Z,10.80
2023-02-23T10:16:01.434Z,9.30
2023-02-23T10:18:54.966Z,9.10
2023-02-23T10:21:43.490Z,8.30
2023-02-23T10:24:20.802Z,8.70
2023-02-23T10:26:54.901Z,9.70
2023-02-23T10:29:49.703Z,9.10
2023-02-23T10:32:39.779Z,8.60
2023-02-23T10:35:15.946Z,7.90
2023-02-23T10:37:48.926Z,9.30
2023-02-23T10:40:29.013Z,8.70
2023-02-23T10:45:58.532Z,8.20
2023-02-23T10:48:43.416Z,7.60
2023-02-23T10:51:22.522Z,8.20
2023-02-23T10:53:56.061Z,7.30
2023-02-23T10:56:31.411Z,6.70
2023-02-23T10:59:11.690Z,7.70
2023-02-23T11:04:56.150Z,7.20
2023-02-23T11:07:42.557Z,7.10
2023-02-23T11:10:37.449Z,7.30
2023-02-23T11:15:51.078Z,5.90
2023-02-23T11:18:23.665Z,6.30
2023-02-23T11:20:52.908Z,6.00
2023-02-23T11:23:34.152Z,6.20
2023-02-23T11:26:05.116Z,6.50
2023-02-23T11:29:16.510Z,6.80
2023-02-23T11:31:53.702Z,5.30
2023-02-23T11:34:35.980Z,5.70
2023-02-23T11:37:11.594Z,6.40
2023-02-23T11:39:54.152Z,6.40
2023-02-23T11:42:37.077Z,6.70
2023-02-23T11:45:15.328Z,6.20
2023-02-23T11:47:51.068Z,6.60
2023-02-23T11:50:30.142Z,6.70
2023-02-23T11:53:09.620Z,8.00
2023-02-23T11:58:45.856Z,8.50
2023-02-23T12:01:39.028Z,8.70
2023-02-23T12:04:23.589Z,8.60
2023-02-23T12:06:59.211Z,8.00
2023-02-23T12:09:34.014Z,12.20
2023-02-23T12:12:07.668Z,8.80
2023-02-23T12:14:52.223Z,6.90
2023-02-23T12:17:28.880Z,8.60
2023-02-23T12:20:12.746Z,9.50
2023-02-23T12:23:14.578Z,9.90
2023-02-23T12:25:59.952Z,9.20
2023-02-23T12:29:04.384Z,9.30
2023-02-23T12:31:46.498Z,9.80
2023-02-23T12:34:47.023Z,8.90
2023-02-23T12:37:29.405Z,8.80
2023-02-23T12:40:04.069Z,9.50
2023-02-23T12:43:09.069Z,11.40
2023-02-23T12:45:50.718Z,7.60
2023-02-23T12:48:51.373Z,9.50
2023-02-23T12:51:45.788Z,9.10
2023-02-23T12:54:15.813Z,8.50
2023-02-23T12:57:07.181Z,9.00
2023-02-23T13:00:24.465Z,7.80
2023-02-23T13:03:03.011Z,8.80
2023-02-23T13:05:34.179Z,10.50
2023-02-23T13:08:25.803Z,7.90
2023-02-23T13:11:26.664Z,7.70
2023-02-23T13:14:10.105Z,9.50
2023-02-23T13:16:56.680Z,7.50
2023-02-23T13:19:45.277Z,8.60
2023-02-23T13:22:33.822Z,8.30
2023-02-23T13:25:19.958Z,7.60
2023-02-23T13:28:00.120Z,9.30
2023-02-23T13:30:32.674Z,8.20
2023-02-23T13:33:07.092Z,8.70
2023-02-23T13:38:18.100Z,8.70
2023-02-23T13:41:10.439Z,10.30
2023-02-23T13:43:53.124Z,10.10
2023-02-23T13:46:25.800Z,9.50
2023-02-23T13:48:59.273Z,9.50
2023-02-23T13:51:35.699Z,9.70
2023-02-23T13:54:20.104Z,9.70
2023-02-23T13:56:54.949Z,10.40
2023-02-23T13:59:26.210Z,9.30
2023-02-23T14:01:54.761Z,8.50
2023-02-23T14:04:26.882Z,9.00
2023-02-23T14:07:10.524Z,9.60
2023-02-23T14:09:54.664Z,9.00
2023-02-23T14:12:40.903Z,9.50
2023-02-23T14:15:28.364Z,9.70
2023-02-23T14:18:04.620Z,10.70
2023-02-23T14:20:39.366Z,9.00
2023-02-23T14:23:20.410Z,9.70
2023-02-23T14:25:52.456Z,9.30
2023-02-23T14:28:26.034Z,9.80
2023-02-23T14:31:10.303Z,10.00
2023-02-23T14:36:22.479Z,10.00
2023-02-23T14:39:24.602Z,10.50
2023-02-23T14:41:58.196Z,10.30
2023-02-23T14:44:32.724Z,10.10
2023-02-23T14:47:15.085Z,10.40
2023-02-23T14:49:45.800Z,9.80
2023-02-23T14:52:21.185Z,13.50
2023-02-23T14:54:49.341Z,12.60
2023-02-23T14:57:20.315Z,12.00
2023-02-23T15:00:15.287Z,13.30
2023-02-23T15:02:59.501Z,12.50
2023-02-23T15:05:33.464Z,13.20
2023-02-23T15:08:07.302Z,12.50
2023-02-23T15:10:49.064Z,13.80
2023-02-23T15:16:08.059Z,14.40
2023-02-23T15:18:40.662Z,12.30
2023-02-23T15:21:16.849Z,12.00
2023-02-23T15:23:46.769Z,12.40
2023-02-23T15:26:24.355Z,12.50
2023-02-23T15:28:53.156Z,12.60
2023-02-23T15:31:22.513Z,11.20
2023-02-23T15:33:52.157Z,11.10
2023-02-23T15:36:35.066Z,12.40
2023-02-23T15:39:12.391Z,12.10
2023-02-23T15:41:45.753Z,10.90
2023-02-23T15:44:19.359Z,12.60
2023-02-23T15:46:58.129Z,11.90
2023-02-23T15:49:32.516Z,11.20
2023-02-23T15:54:57.181Z,9.80
2023-02-23T15:57:44.513Z,9.30
2023-02-23T16:00:27.448Z,10.60
2023-02-23T16:02:57.131Z,10.20
2023-02-23T16:05:30.362Z,9.70
2023-02-23T16:08:05.425Z,8.40
2023-02-23T16:10:42.248Z,9.80
2023-02-23T16:13:13.442Z,8.80
2023-02-23T16:15:43.037Z,8.40
2023-02-23T16:18:23.353Z,8.70
2023-02-23T16:20:56.246Z,10.80
2023-02-23T16:23:35.663Z,7.30
2023-02-23T16:26:10.922Z,7.90
2023-02-23T16:28:44.901Z,7.60
2023-02-23T16:31:14.398Z,8.20
2023-02-23T16:33:44.569Z,8.10
2023-02-23T16:36:16.150Z,8.80
2023-02-23T16:39:07.807Z,9.40
2023-02-23T16:41:37.101Z,9.00
2023-02-23T16:44:11.588Z,8.50
2023-02-23T16:47:09.833Z,8.70
2023-02-23T16:49:39.094Z,9.50
2023-02-23T16:52:15.582Z,10.80
2023-02-23T16:54:48.757Z,11.00
2023-02-23T16:57:30.898Z,12.00
2023-02-23T17:00:00.569Z,11.20
2023-02-23T17:02:29.331Z,11.70
2023-02-23T17:04:59.098Z,12.70
2023-02-23T17:07:33.510Z,11.80
2023-02-23T17:12:36.010Z,11.90
2023-02-23T17:15:04.530Z,13.10
2023-02-23T17:17:33.167Z,12.80
2023-02-23T17:20:01.299Z,11.80
2023-02-23T17:22:30.236Z,12.60
2023-02-23T17:24:58.606Z,11.50
2023-02-23T17:27:26.790Z,13.50
2023-02-23T17:29:54.991Z,12.80
2023-02-23T17:32:24.503Z,13.30
2023-02-23T17:34:54.630Z,12.80
2023-02-23T17:37:23.555Z,12.00
2023-02-23T17:39:54.170Z,13.20
2023-02-23T17:42:24.616Z,12.70
2023-02-23T17:44:53.573Z,10.80
2023-02-23T17:47:21.940Z,12.20
2023-02-23T17:49:50.048Z,12.00
2023-02-23T17:52:19.746Z,12.40
2023-02-23T17:54:48.126Z,12.80
2023-02-23T17:57:16.777Z,11.60
2023-02-23T17:59:44.837Z,12.30
2023-02-23T18:02:18.275Z,11.40
2023-02-23T18:04:47.796Z,12.00
2023-02-23T18:07:16.451Z,11.50
2023-02-23T18:09:45.227Z,11.60
2023-02-23T18:12:14.200Z,11.20
2023-02-23T18:14:43.093Z,11.20
2023-02-23T18:17:11.618Z,10.80
2023-02-23T18:19:41.740Z,12.30
2023-02-23T18:22:10.387Z,11.20
2023-02-23T18:24:38.578Z,11.80
2023-02-23T18:27:06.688Z,10.60
2023-02-23T18:29:35.426Z,11.10
2023-02-23T18:32:04.535Z,10.70
2023-02-23T18:34:32.987Z,10.60
2023-02-23T18:37:02.520Z,9.80
2023-02-23T18:39:32.665Z,9.70
2023-02-23T18:42:01.453Z,10.80
2023-02-23T18:44:30.279Z,10.10
2023-02-23T18:46:58.813Z,9.60
2023-02-23T18:49:29.390Z,9.80
2023-02-23T18:52:01.745Z,8.90
2023-02-23T18:54:30.267Z,9.50
2023-02-23T18:56:58.468Z,9.20
2023-02-23T18:59:27.021Z,9.10
2023-02-23T19:01:55.526Z,9.80
2023-02-23T19:04:25.047Z,9.40
2023-02-23T19:06:54.889Z,9.50
2023-02-23T19:09:27.520Z,9.90
2023-02-23T19:11:56.005Z,8.70
2023-02-23T19:14:46.438Z,10.80
2023-02-23T19:17:15.932Z,9.80
2023-02-23T19:19:44.081Z,11.10
2023-02-23T19:22:12.204Z,10.50
2023-02-23T19:24:40.974Z,11.20
2023-02-23T19:27:10.231Z,10.50
2023-02-23T19:29:40.100Z,9.70
2023-02-23T19:32:09.349Z,11.10
2023-02-23T19:34:40.112Z,10.70
2023-02-23T19:37:09.281Z,11.10
2023-02-23T19:39:39.988Z,11.20
2023-02-23T19:42:09.298Z,11.70
2023-02-23T19:44:38.865Z,11.10
2023-02-23T19:47:07.157Z,10.30
2023-02-23T19:49:37.513Z,11.00
2023-02-23T19:52:05.585Z,10.20
2023-02-23T19:54:41.951Z,11.10
2023-02-23T19:57:10.552Z,10.50
2023-02-23T19:59:38.897Z,9.90
2023-02-23T20:02:06.984Z,11.00
2023-02-23T20:04:36.108Z,9.90
2023-02-23T20:07:04.479Z,11.10
2023-02-23T20:09:33.107Z,9.80
2023-02-23T20:12:07.118Z,7.70
2023-02-23T20:14:39.039Z,9.50
2023-02-23T20:17:09.222Z,10.00
2023-02-23T20:19:38.308Z,9.60
2023-02-23T20:22:09.025Z,9.70
2023-02-23T20:24:40.556Z,9.40
2023-02-23T20:27:09.006Z,9.60
2023-02-23T20:29:37.655Z,9.30
2023-02-23T20:32:06.016Z,10.10
2023-02-23T20:34:35.774Z,10.00
2023-02-23T20:37:04.492Z,9.80
2023-02-23T20:39:33.527Z,9.70
2023-02-23T20:42:01.697Z,9.60
2023-02-23T20:44:31.408Z,11.60
2023-02-23T20:47:01.482Z,9.80
2023-02-23T20:49:30.890Z,11.50
2023-02-23T20:51:58.955Z,10.10
2023-02-23T20:54:27.701Z,10.30
2023-02-23T20:57:07.688Z,10.10
2023-02-23T20:59:36.621Z,10.20
2023-02-23T21:02:05.839Z,10.50
2023-02-23T21:04:38.326Z,10.10
2023-02-23T21:07:06.964Z,10.60
2023-02-23T21:09:36.785Z,10.20
2023-02-23T21:12:04.944Z,10.80
2023-02-23T21:14:39.013Z,10.50
2023-02-23T21:17:07.075Z,12.00
2023-02-23T21:19:36.541Z,11.30
2023-02-23T21:22:04.991Z,11.40
2023-02-23T21:24:34.923Z,11.30
2023-02-23T21:27:05.424Z,10.80
2023-02-23T21:29:34.347Z,11.40
2023-02-23T21:32:02.456Z,11.50
2023-02-23T21:34:30.994Z,11.00
2023-02-23T21:37:09.881Z,11.40
2023-02-23T21:39:38.724Z,11.20
2023-02-23T21:42:07.647Z,11.30
2023-02-23T21:44:36.134Z,11.90
2023-02-23T21:47:07.330Z,10.80
2023-02-23T21:49:38.666Z,10.70
2023-02-23T21:52:08.592Z,11.90
2023-02-23T21:54:36.638Z,11.00
2023-02-23T21:57:05.652Z,12.00
2023-02-23T21:59:35.736Z,11.20
2023-02-23T22:02:04.247Z,10.60
2023-02-23T22:04:35.770Z,11.20
2023-02-23T22:07:04.698Z,11.60
2023-02-23T22:09:33.013Z,11.30
2023-02-23T22:12:01.116Z,10.70
2023-02-23T22:14:30.731Z,10.60
2023-02-23T22:16:59.458Z,9.80
2023-02-23T22:19:27.494Z,11.60
2023-02-23T22:21:56.032Z,11.70
2023-02-23T22:24:24.800Z,10.20
2023-02-23T22:26:56.794Z,10.60
2023-02-23T22:29:25.861Z,11.50
2023-02-23T22:31:54.282Z,9.60
2023-02-23T22:34:22.984Z,10.50
2023-02-23T22:36:54.071Z,10.90
2023-02-23T22:39:22.161Z,10.80
2023-02-23T22:41:50.661Z,11.10
2023-02-23T22:44:21.437Z,10.60
2023-02-23T22:46:49.652Z,9.80
2023-02-23T22:49:20.283Z,10.10
2023-02-23T22:51:48.715Z,10.40
2023-02-23T22:54:17.601Z,9.70
2023-02-23T22:56:47.077Z,10.30
2023-02-23T22:59:17.785Z,10.90
2023-02-23T23:01:49.062Z,10.30
2023-02-23T23:04:19.600Z,9.80
2023-02-23T23:06:47.813Z,10.90
2023-02-23T23:09:21.282Z,10.80
2023-02-23T23:11:51.400Z,10.30
2023-02-23T23:14:25.111Z,10.40
2023-02-23T23:16:54.881Z,10.20
2023-02-23T23:19:25.848Z,10.70
2023-02-23T23:21:55.448Z,10.50
2023-02-23T23:24:27.355Z,10.10
2023-02-23T23:27:00.272Z,10.70
2023-02-23T23:29:30.868Z,10.90
2023-02-23T23:31:59.167Z,10.60
2023-02-23T23:34:27.701Z,10.40
2023-02-23T23:36:57.865Z,10.60
2023-02-23T23:39:26.462Z,10.60
2023-02-23T23:41:54.717Z,10.90
2023-02-23T23:44:24.183Z,10.20
2023-02-23T23:46:53.031Z,10.80
2023-02-23T23:49:25.820Z,10.20
2023-02-23T23:51:58.055Z,10.40
2023-02-23T23:54:31.137Z,10.40
2023-02-23T23:57:03.723Z,10.60
2023-02-23T23:59:33.530Z,10.70
